createdAt,value
2017-05-26T00:00:59.458Z,45.2
2017-05-26T00:01:59.418Z,45.18
2017-05-26T00:02:59.113Z,45.37
2017-05-26T00:03:59.482Z,45.08
2017-05-26T00:04:59.491Z,45.28
2017-05-26T00:05:59.137Z,45.28
2017-05-26T00:06:59.144Z,45.08
2017-05-26T00:07:59.464Z,45.08
2017-05-26T00:08:59.166Z,45.18
2017-05-26T00:09:59.481Z,44.98
2017-05-26T00:10:59.492Z,44.98
2017-05-26T00:11:59.501Z,45.18
2017-05-26T00:12:59.504Z,45.37
2017-05-26T00:13:59.200Z,44.89
2017-05-26T00:14:59.571Z,45.28
2017-05-26T00:15:59.530Z,45.37
2017-05-26T00:16:59.539Z,45.18
2017-05-26T00:17:59.545Z,45.08
2017-05-26T00:18:59.604Z,45.47
2017-05-26T00:19:59.561Z,45.37
2017-05-26T00:20:59.258Z,45.37
2017-05-26T00:21:59.576Z,45.28
2017-05-26T00:22:59.587Z,45.66
2017-05-26T00:23:59.594Z,45.47
2017-05-26T00:24:59.601Z,45.86
2017-05-26T00:25:59.612Z,45.28
2017-05-26T00:26:59.308Z,44.79
2017-05-26T00:27:59.312Z,45.37
2017-05-26T00:28:59.321Z,45.47
2017-05-26T00:29:59.332Z,45.28
2017-05-26T00:30:59.339Z,45.08
2017-05-26T00:31:59.347Z,45.28
2017-05-26T00:32:59.354Z,45.28
2017-05-26T00:33:59.672Z,44.7
2017-05-26T00:34:59.682Z,45.28
2017-05-26T00:35:59.689Z,44.98
2017-05-26T00:36:59.386Z,45.08
2017-05-26T00:37:59.397Z,44.98
2017-05-26T00:38:59.403Z,45.57
2017-05-26T00:39:59.721Z,45.66
2017-05-26T00:40:59.730Z,45.18
2017-05-26T00:41:59.789Z,44.89
2017-05-26T00:42:59.435Z,44.79
2017-05-26T00:43:59.496Z,45.08
2017-05-26T00:44:59.454Z,44.98
2017-05-26T00:45:59.461Z,44.98
2017-05-26T00:46:59.467Z,45.18
2017-05-26T00:47:59.785Z,44.98
2017-05-26T00:48:59.791Z,44.79
2017-05-26T00:49:59.801Z,45.08
2017-05-26T00:50:59.809Z,45.28
2017-05-26T00:51:59.822Z,45.08
2017-05-26T00:52:59.513Z,44.98
2017-05-26T00:53:59.571Z,45.28
2017-05-26T00:54:59.533Z,45.37
2017-05-26T00:55:59.847Z,45.37
2017-05-26T00:56:59.855Z,44.98
2017-05-26T00:57:59.559Z,45.37
2017-05-26T00:58:59.872Z,45.28
2017-05-26T00:59:59.879Z,45.28
2017-05-26T01:00:59.890Z,45.47
2017-05-26T01:01:59.947Z,45.08
2017-05-26T01:02:59.905Z,45.18
2017-05-26T01:03:59.963Z,45.47
2017-05-26T01:04:59.919Z,44.98
2017-05-26T01:05:59.929Z,44.7
2017-05-26T01:06:59.936Z,45.37
2017-05-26T01:07:59.942Z,45.28
2017-05-26T01:08:59.953Z,45.47
2017-05-26T01:09:59.959Z,44.98
2017-05-26T01:10:59.969Z,45.28
2017-05-26T01:11:59.975Z,45.37
2017-05-26T01:12:59.983Z,45.95
2017-05-26T01:14:00.040Z,45.47
2017-05-26T01:14:59.686Z,45.57
2017-05-26T01:16:00.007Z,45.66
2017-05-26T01:16:59.704Z,45.66
2017-05-26T01:18:00.027Z,45.47
2017-05-26T01:19:00.041Z,45.57
2017-05-26T01:20:00.038Z,45.28
2017-05-26T01:21:00.049Z,45.57
2017-05-26T01:22:00.056Z,45.47
2017-05-26T01:23:00.067Z,45.37
2017-05-26T01:24:00.121Z,45.28
2017-05-26T01:25:00.083Z,45.37
2017-05-26T01:26:00.088Z,45.47
2017-05-26T01:26:59.782Z,45.66
2017-05-26T01:28:00.103Z,45.66
2017-05-26T01:28:59.848Z,45.47
2017-05-26T01:30:00.421Z,45.37
2017-05-26T01:31:00.125Z,45.86
2017-05-26T01:32:00.135Z,45.76
2017-05-26T01:32:59.884Z,45.28
2017-05-26T01:34:00.154Z,45.76
2017-05-26T01:35:00.159Z,45.47
2017-05-26T01:35:59.908Z,45.37
2017-05-26T01:37:00.177Z,45.76
2017-05-26T01:37:59.919Z,45.37
2017-05-26T01:39:00.189Z,45.86
2017-05-26T01:40:00.199Z,45.86
2017-05-26T01:41:00.205Z,45.37
2017-05-26T01:42:00.212Z,45.47
2017-05-26T01:43:00.221Z,45.57
2017-05-26T01:44:00.278Z,45.37
2017-05-26T01:45:00.238Z,45.57
2017-05-26T01:46:00.593Z,46.15
2017-05-26T01:47:00.253Z,45.95
2017-05-26T01:48:00.312Z,45.86
2017-05-26T01:49:00.268Z,46.05
2017-05-26T01:50:00.276Z,45.95
2017-05-26T01:51:00.283Z,45.76
2017-05-26T01:52:00.291Z,45.95
2017-05-26T01:52:59.987Z,45.76
2017-05-26T01:53:59.996Z,46.15
2017-05-26T01:55:00.323Z,46.05
2017-05-26T01:56:00.323Z,45.86
2017-05-26T01:57:00.332Z,45.76
2017-05-26T01:58:00.341Z,45.95
2017-05-26T01:59:00.347Z,45.86
2017-05-26T02:00:00.355Z,46.05
2017-05-26T02:01:00.363Z,46.44
2017-05-26T02:02:00.671Z,45.95
2017-05-26T02:03:00.380Z,45.47
2017-05-26T02:04:00.075Z,45.76
2017-05-26T02:05:00.093Z,45.95
2017-05-26T02:06:00.400Z,45.86
2017-05-26T02:07:00.411Z,45.86
2017-05-26T02:08:00.419Z,45.57
2017-05-26T02:09:00.427Z,45.57
2017-05-26T02:10:00.437Z,46.15
2017-05-26T02:11:00.441Z,46.34
2017-05-26T02:12:00.448Z,46.44
2017-05-26T02:13:00.508Z,46.44
2017-05-26T02:14:00.465Z,46.53
2017-05-26T02:15:00.471Z,45.95
2017-05-26T02:16:00.479Z,45.35
2017-05-26T02:17:00.490Z,46.05
2017-05-26T02:18:00.498Z,46.05
2017-05-26T02:19:00.194Z,46.05
2017-05-26T02:20:00.209Z,46.25
2017-05-26T02:21:00.571Z,45.86
2017-05-26T02:22:00.529Z,45.86
2017-05-26T02:23:00.538Z,45.95
2017-05-26T02:24:00.546Z,45.66
2017-05-26T02:25:00.559Z,45.66
2017-05-26T02:26:00.560Z,45.37
2017-05-26T02:27:00.616Z,45.28
2017-05-26T02:28:00.576Z,45.57
2017-05-26T02:29:00.584Z,45.95
2017-05-26T02:30:00.595Z,45.57
2017-05-26T02:31:00.599Z,46.15
2017-05-26T02:32:00.606Z,45.76
2017-05-26T02:33:00.715Z,45.95
2017-05-26T02:34:00.621Z,46.05
2017-05-26T02:35:00.631Z,45.86
2017-05-26T02:36:00.639Z,46.05
2017-05-26T02:37:00.647Z,46.15
2017-05-26T02:38:00.656Z,46.15
2017-05-26T02:39:00.663Z,45.37
2017-05-26T02:40:00.463Z,45.95
2017-05-26T02:41:00.677Z,45.86
2017-05-26T02:42:00.687Z,45.86
2017-05-26T02:43:00.698Z,45.86
2017-05-26T02:44:00.702Z,45.95
2017-05-26T02:45:00.711Z,46.05
2017-05-26T02:46:00.720Z,45.95
2017-05-26T02:47:00.725Z,45.86
2017-05-26T02:48:00.735Z,45.57
2017-05-26T02:49:00.742Z,45.37
2017-05-26T02:50:00.752Z,45.86
2017-05-26T02:51:00.755Z,45.86
2017-05-26T02:52:00.763Z,45.86
2017-05-26T02:53:00.467Z,45.95
2017-05-26T02:54:00.778Z,45.76
2017-05-26T02:55:00.787Z,45.76
2017-05-26T02:56:00.794Z,46.05
2017-05-26T02:57:00.493Z,45.76
2017-05-26T02:58:00.499Z,45.95
2017-05-26T02:59:00.510Z,46.63
2017-05-26T03:00:00.826Z,46.34
2017-05-26T03:01:00.885Z,46.44
2017-05-26T03:02:00.844Z,46.15
2017-05-26T03:03:00.540Z,46.05
2017-05-26T03:04:00.860Z,46.51
2017-05-26T03:05:00.868Z,46.03
2017-05-26T03:06:00.974Z,45.57
2017-05-26T03:07:00.939Z,46.03
2017-05-26T03:08:00.581Z,45.74
2017-05-26T03:09:00.946Z,46.05
2017-05-26T03:10:00.909Z,45.64
2017-05-26T03:11:00.915Z,45.66
2017-05-26T03:12:00.612Z,46.42
2017-05-26T03:13:00.932Z,46.42
2017-05-26T03:14:00.938Z,46.44
2017-05-26T03:15:00.634Z,46.34
2017-05-26T03:16:00.951Z,46.42
2017-05-26T03:17:00.960Z,46.53
2017-05-26T03:18:01.017Z,46.15
2017-05-26T03:19:01.075Z,46.51
2017-05-26T03:20:00.983Z,46.34
2017-05-26T03:21:00.681Z,46.61
2017-05-26T03:22:00.688Z,46.42
2017-05-26T03:23:01.007Z,46.61
2017-05-26T03:24:01.080Z,46.32
2017-05-26T03:25:01.023Z,46.25
2017-05-26T03:26:01.027Z,46.34
2017-05-26T03:27:01.036Z,46.12
2017-05-26T03:28:01.046Z,46.44
2017-05-26T03:29:01.052Z,46.12
2017-05-26T03:30:01.060Z,46.22
2017-05-26T03:31:01.067Z,46.51
2017-05-26T03:32:00.868Z,46.42
2017-05-26T03:33:01.083Z,46.25
2017-05-26T03:34:01.092Z,46.32
2017-05-26T03:35:01.099Z,46.34
2017-05-26T03:36:01.104Z,46.34
2017-05-26T03:37:01.115Z,46.51
2017-05-26T03:38:01.124Z,46.22
2017-05-26T03:39:00.820Z,46.63
2017-05-26T03:40:00.829Z,46.42
2017-05-26T03:41:01.149Z,46.15
2017-05-26T03:42:01.153Z,45.64
2017-05-26T03:43:01.260Z,46.25
2017-05-26T03:44:01.170Z,46.44
2017-05-26T03:45:01.189Z,46.53
2017-05-26T03:46:00.876Z,46.34
2017-05-26T03:47:00.881Z,46.15
2017-05-26T03:48:01.202Z,46.42
2017-05-26T03:49:01.207Z,46.42
2017-05-26T03:50:01.219Z,46.34
2017-05-26T03:51:01.225Z,46.44
2017-05-26T03:52:00.923Z,46.32
2017-05-26T03:53:00.929Z,46.15
2017-05-26T03:54:01.298Z,46.25
2017-05-26T03:55:01.310Z,46.15
2017-05-26T03:56:01.261Z,46.05
2017-05-26T03:57:01.319Z,45.86
2017-05-26T03:58:01.285Z,45.76
2017-05-26T03:59:01.287Z,46.51
2017-05-26T04:00:01.293Z,45.66
2017-05-26T04:01:01.303Z,46.44
2017-05-26T04:02:01.310Z,46.15
2017-05-26T04:03:01.369Z,45.66
2017-05-26T04:04:01.323Z,45.76
2017-05-26T04:05:01.334Z,45.74
2017-05-26T04:06:01.341Z,45.57
2017-05-26T04:07:01.349Z,46.05
2017-05-26T04:08:01.366Z,45.86
2017-05-26T04:09:01.366Z,45.95
2017-05-26T04:10:01.372Z,45.95
2017-05-26T04:11:01.480Z,45.76
2017-05-26T04:12:01.386Z,45.86
2017-05-26T04:13:01.395Z,45.86
2017-05-26T04:14:01.094Z,45.95
2017-05-26T04:15:01.413Z,45.57
2017-05-26T04:16:01.418Z,45.86
2017-05-26T04:17:01.477Z,45.86
2017-05-26T04:18:01.435Z,45.95
2017-05-26T04:19:01.438Z,45.37
2017-05-26T04:20:01.449Z,45.57
2017-05-26T04:21:01.148Z,45.37
2017-05-26T04:22:01.465Z,45.76
2017-05-26T04:23:01.158Z,45.95
2017-05-26T04:24:01.481Z,45.37
2017-05-26T04:25:01.492Z,45.57
2017-05-26T04:26:01.545Z,45.37
2017-05-26T04:27:01.197Z,45.66
2017-05-26T04:28:01.514Z,45.57
2017-05-26T04:29:01.569Z,45.57
2017-05-26T04:30:01.529Z,45.37
2017-05-26T04:31:01.225Z,44.79
2017-05-26T04:32:01.543Z,44.98
2017-05-26T04:33:01.600Z,45.37
2017-05-26T04:34:01.302Z,45.08
2017-05-26T04:35:01.568Z,45.08
2017-05-26T04:36:01.575Z,44.89
2017-05-26T04:37:01.581Z,45.18
2017-05-26T04:38:01.641Z,45.2
2017-05-26T04:39:01.599Z,44.98
2017-05-26T04:40:01.608Z,44.81
2017-05-26T04:41:01.665Z,44.62
2017-05-26T04:42:01.361Z,45.2
2017-05-26T04:43:01.630Z,44.81
2017-05-26T04:44:01.635Z,44.62
2017-05-26T04:45:01.644Z,44.62
2017-05-26T04:46:01.653Z,44.33
2017-05-26T04:47:01.713Z,44.13
2017-05-26T04:48:01.672Z,44.43
2017-05-26T04:49:01.678Z,44.35
2017-05-26T04:50:01.686Z,44.16
2017-05-26T04:51:01.693Z,43.38
2017-05-26T04:52:01.703Z,43.21
2017-05-26T04:53:01.415Z,42.72
2017-05-26T04:54:01.718Z,42.92
2017-05-26T04:55:01.780Z,42.82
2017-05-26T04:56:01.736Z,42.44
2017-05-26T04:57:01.796Z,42.55
2017-05-26T04:58:01.776Z,42.36
2017-05-26T04:59:01.768Z,42.17
2017-05-26T05:00:01.774Z,41.88
2017-05-26T05:01:01.786Z,41.39
2017-05-26T05:02:01.794Z,41.68
2017-05-26T05:03:01.803Z,41.61
2017-05-26T05:04:01.813Z,41.22
2017-05-26T05:05:01.821Z,41.51
2017-05-26T05:06:01.883Z,41.41
2017-05-26T05:07:01.840Z,41.41
2017-05-26T05:08:01.852Z,40.95
2017-05-26T05:09:01.861Z,40.26
2017-05-26T05:10:01.871Z,40.08
2017-05-26T05:11:01.571Z,39.8
2017-05-26T05:12:01.580Z,40.29
2017-05-26T05:13:01.588Z,40
2017-05-26T05:14:01.909Z,39.7
2017-05-26T05:15:01.608Z,39.41
2017-05-26T05:16:01.619Z,39.32
2017-05-26T05:17:01.628Z,39.43
2017-05-26T05:18:01.639Z,38.95
2017-05-26T05:19:01.959Z,38.85
2017-05-26T05:20:01.971Z,38.75
2017-05-26T05:21:01.980Z,38.57
2017-05-26T05:22:01.991Z,38.48
2017-05-26T05:23:02.003Z,38.48
2017-05-26T05:24:02.012Z,38.19
2017-05-26T05:25:01.744Z,37.99
2017-05-26T05:26:02.046Z,37.43
2017-05-26T05:27:02.045Z,37.62
2017-05-26T05:28:02.055Z,37.43
2017-05-26T05:29:02.066Z,36.75
2017-05-26T05:30:02.127Z,37.06
2017-05-26T05:31:02.085Z,36.87
2017-05-26T05:32:02.097Z,36.38
2017-05-26T05:33:02.107Z,35.91
2017-05-26T05:34:01.808Z,36.69
2017-05-26T05:35:01.817Z,35.81
2017-05-26T05:36:02.138Z,35.73
2017-05-26T05:37:02.151Z,35.34
2017-05-26T05:38:02.163Z,35.05
2017-05-26T05:39:02.172Z,34.78
2017-05-26T05:40:02.186Z,34.4
2017-05-26T05:41:02.196Z,34.5
2017-05-26T05:42:02.203Z,34.31
2017-05-26T05:43:02.215Z,34.11
2017-05-26T05:44:02.227Z,33.73
2017-05-26T05:45:02.241Z,33.34
2017-05-26T05:46:02.248Z,33.06
2017-05-26T05:47:01.948Z,32.97
2017-05-26T05:48:02.271Z,32.48
2017-05-26T05:49:01.969Z,32.11
2017-05-26T05:50:02.296Z,31.82
2017-05-26T05:51:01.994Z,31.64
2017-05-26T05:52:02.313Z,31.45
2017-05-26T05:53:02.015Z,31.26
2017-05-26T05:54:02.339Z,30.97
2017-05-26T05:55:02.351Z,30.87
2017-05-26T05:56:02.048Z,30.3
2017-05-26T05:57:02.371Z,30.12
2017-05-26T05:58:02.407Z,29.93
2017-05-26T05:59:02.394Z,29.55
2017-05-26T06:00:02.466Z,29.16
2017-05-26T06:01:02.416Z,29.27
2017-05-26T06:02:02.132Z,29.56
2017-05-26T06:03:02.439Z,29.16
2017-05-26T06:04:02.506Z,28.78
2017-05-26T06:05:02.462Z,28.49
2017-05-26T06:06:02.485Z,28.5
2017-05-26T06:07:02.486Z,28.5
2017-05-26T06:08:02.499Z,28.59
2017-05-26T06:09:02.505Z,28.5
2017-05-26T06:10:02.521Z,28.59
2017-05-26T06:11:02.532Z,28.3
2017-05-26T06:12:02.541Z,28.12
2017-05-26T06:13:02.555Z,28.02
2017-05-26T06:14:02.571Z,27.53
2017-05-26T06:15:02.323Z,27.64
2017-05-26T06:16:02.591Z,27.74
2017-05-26T06:17:02.602Z,27.64
2017-05-26T06:18:02.614Z,27.55
2017-05-26T06:19:02.639Z,27.45
2017-05-26T06:20:02.638Z,27.15
2017-05-26T06:21:02.390Z,27.07
2017-05-26T06:22:02.351Z,27.26
2017-05-26T06:23:02.676Z,27.25
2017-05-26T06:24:02.685Z,27.07
2017-05-26T06:25:02.699Z,27.17
2017-05-26T06:26:02.711Z,27.07
2017-05-26T06:27:02.724Z,26.87
2017-05-26T06:28:02.475Z,26.58
2017-05-26T06:29:02.749Z,26.29
2017-05-26T06:30:02.811Z,26.4
2017-05-26T06:31:02.461Z,26.4
2017-05-26T06:32:02.802Z,26.29
2017-05-26T06:33:02.800Z,26.1
2017-05-26T06:34:02.811Z,26.21
2017-05-26T06:35:02.821Z,26.41
2017-05-26T06:36:02.837Z,26.31
2017-05-26T06:37:02.847Z,26.4
2017-05-26T06:38:02.859Z,26.29
2017-05-26T06:39:02.871Z,26.2
2017-05-26T06:40:02.883Z,25.82
2017-05-26T06:41:02.898Z,26.01
2017-05-26T06:42:02.909Z,26.12
2017-05-26T06:43:02.921Z,25.62
2017-05-26T06:44:02.934Z,25.72
2017-05-26T06:45:02.950Z,25.54
2017-05-26T06:46:02.651Z,26.11
2017-05-26T06:47:02.973Z,26.01
2017-05-26T06:48:03.040Z,26.01
2017-05-26T06:49:02.692Z,26.21
2017-05-26T06:50:03.010Z,26.4
2017-05-26T06:51:03.032Z,26.2
2017-05-26T06:52:03.034Z,26.2
2017-05-26T06:53:02.738Z,26.31
2017-05-26T06:54:03.062Z,26.41
2017-05-26T06:55:03.074Z,26.2
2017-05-26T06:56:03.089Z,26.31
2017-05-26T06:57:02.790Z,25.72
2017-05-26T06:58:03.117Z,25.72
2017-05-26T06:59:03.125Z,26.41
2017-05-26T07:00:03.188Z,26.4
2017-05-26T07:01:03.153Z,26.31
2017-05-26T07:02:02.903Z,25.82
2017-05-26T07:03:03.175Z,25.52
2017-05-26T07:04:03.188Z,25.72
2017-05-26T07:05:03.199Z,25.62
2017-05-26T07:06:03.216Z,25.62
2017-05-26T07:07:02.917Z,25.72
2017-05-26T07:08:03.239Z,25.63
2017-05-26T07:09:03.257Z,25.83
2017-05-26T07:10:03.263Z,25.73
2017-05-26T07:11:03.277Z,26.41
2017-05-26T07:12:03.291Z,25.72
2017-05-26T07:13:03.304Z,25.72
2017-05-26T07:14:03.005Z,25.73
2017-05-26T07:15:03.328Z,25.72
2017-05-26T07:16:03.347Z,25.43
2017-05-26T07:17:03.354Z,25.73
2017-05-26T07:18:03.055Z,25.92
2017-05-26T07:19:03.377Z,25.92
2017-05-26T07:20:03.084Z,25.34
2017-05-26T07:21:03.095Z,25.44
2017-05-26T07:22:03.420Z,25.44
2017-05-26T07:23:03.484Z,25.34
2017-05-26T07:24:03.448Z,25.24
2017-05-26T07:25:03.508Z,25.34
2017-05-26T07:26:03.475Z,25.04
2017-05-26T07:27:03.483Z,24.95
2017-05-26T07:28:03.498Z,24.47
2017-05-26T07:29:03.512Z,24.76
2017-05-26T07:30:03.216Z,24.86
2017-05-26T07:31:03.642Z,24.66
2017-05-26T07:32:03.549Z,25.26
2017-05-26T07:33:03.563Z,25.34
2017-05-26T07:34:03.576Z,25.04
2017-05-26T07:35:03.592Z,24.76
2017-05-26T07:36:03.604Z,25.05
2017-05-26T07:37:03.615Z,26.72
2017-05-26T07:38:03.630Z,30
2017-05-26T07:39:03.330Z,33.4
2017-05-26T07:40:03.342Z,35.47
2017-05-26T07:41:03.665Z,36.69
2017-05-26T07:42:03.683Z,37.16
2017-05-26T07:43:03.742Z,37.34
2017-05-26T07:44:03.752Z,37.52
2017-05-26T07:45:03.711Z,37.92
2017-05-26T07:46:03.724Z,38.4
2017-05-26T07:47:03.729Z,38.48
2017-05-26T07:48:03.792Z,38.96
2017-05-26T07:49:03.752Z,38.87
2017-05-26T07:50:03.760Z,39.53
2017-05-26T07:51:03.772Z,39.43
2017-05-26T07:52:03.787Z,39.24
2017-05-26T07:53:03.794Z,39.14
2017-05-26T07:54:03.814Z,37.88
2017-05-26T07:55:03.812Z,35.6
2017-05-26T07:56:03.823Z,34.29
2017-05-26T07:57:03.832Z,33.65
2017-05-26T07:58:03.844Z,35.1
2017-05-26T07:59:03.541Z,36.61
2017-05-26T08:00:03.601Z,37.54
2017-05-26T08:01:03.889Z,38.11
2017-05-26T08:02:03.569Z,38.5
2017-05-26T08:03:03.627Z,38.29
2017-05-26T08:04:03.587Z,38.48
2017-05-26T08:05:03.911Z,38.67
2017-05-26T08:06:03.918Z,38.48
2017-05-26T08:07:03.932Z,38.39
2017-05-26T08:08:03.937Z,38.39
2017-05-26T08:09:03.946Z,38.48
2017-05-26T08:10:03.644Z,38.96
2017-05-26T08:11:03.967Z,38.65
2017-05-26T08:12:03.979Z,39.53
2017-05-26T08:13:04.034Z,39.53
2017-05-26T08:14:03.994Z,39.34
2017-05-26T08:15:04.001Z,39.43
2017-05-26T08:16:04.066Z,39.43
2017-05-26T08:17:04.025Z,39.43
2017-05-26T08:18:03.720Z,39.14
2017-05-26T08:19:04.041Z,39.24
2017-05-26T08:20:04.052Z,39.22
2017-05-26T08:21:04.165Z,39.72
2017-05-26T08:22:04.068Z,39.8
2017-05-26T08:23:04.077Z,39.9
2017-05-26T08:24:04.086Z,39.8
2017-05-26T08:25:04.098Z,40
2017-05-26T08:26:03.845Z,39.9
2017-05-26T08:27:04.114Z,40.09
2017-05-26T08:28:04.123Z,40.19
2017-05-26T08:29:04.131Z,40.29
2017-05-26T08:30:04.144Z,39.8
2017-05-26T08:31:04.152Z,40
2017-05-26T08:32:04.163Z,40.09
2017-05-26T08:33:03.875Z,40.09
2017-05-26T08:34:04.229Z,40.58
2017-05-26T08:35:04.189Z,40.58
2017-05-26T08:36:04.198Z,40.48
2017-05-26T08:37:03.895Z,40.09
2017-05-26T08:38:03.905Z,40.29
2017-05-26T08:39:04.226Z,40.39
2017-05-26T08:40:04.234Z,40.39
2017-05-26T08:41:04.293Z,40.87
2017-05-26T08:42:04.253Z,40.58
2017-05-26T08:43:04.264Z,40.77
2017-05-26T08:44:04.272Z,40.29
2017-05-26T08:45:04.379Z,40.87
2017-05-26T08:46:04.345Z,41.26
2017-05-26T08:47:04.300Z,41.16
2017-05-26T08:48:04.356Z,41.16
2017-05-26T08:49:04.315Z,41.16
2017-05-26T08:50:04.324Z,40.77
2017-05-26T08:51:04.386Z,41.16
2017-05-26T08:52:04.345Z,41.26
2017-05-26T08:53:04.353Z,41.26
2017-05-26T08:54:04.362Z,40.39
2017-05-26T08:55:04.374Z,40.97
2017-05-26T08:56:04.071Z,41.26
2017-05-26T08:57:04.086Z,41.36
2017-05-26T08:58:04.399Z,40.87
2017-05-26T08:59:04.414Z,40.87
2017-05-26T09:00:04.472Z,41.45
2017-05-26T09:01:04.433Z,41.36
2017-05-26T09:02:04.439Z,41.26
2017-05-26T09:03:04.444Z,41.36
2017-05-26T09:04:04.455Z,41.26
2017-05-26T09:05:04.466Z,41.55
2017-05-26T09:06:04.164Z,41.55
2017-05-26T09:07:04.484Z,41.55
2017-05-26T09:08:04.181Z,41.26
2017-05-26T09:09:04.502Z,41.36
2017-05-26T09:10:04.510Z,41.55
2017-05-26T09:11:04.520Z,40.67
2017-05-26T09:12:04.528Z,41.36
2017-05-26T09:13:04.540Z,41.26
2017-05-26T09:14:04.546Z,41.18
2017-05-26T09:15:04.556Z,40.99
2017-05-26T09:16:04.306Z,41.36
2017-05-26T09:17:04.579Z,41.28
2017-05-26T09:18:04.585Z,40.87
2017-05-26T09:19:04.592Z,40.97
2017-05-26T09:20:04.616Z,41.16
2017-05-26T09:21:04.610Z,40.87
2017-05-26T09:22:04.307Z,41.18
2017-05-26T09:23:04.631Z,41.06
2017-05-26T09:24:04.636Z,40.87
2017-05-26T09:25:04.648Z,41.16
2017-05-26T09:26:04.349Z,40.58
2017-05-26T09:27:04.356Z,40.97
2017-05-26T09:28:04.678Z,41.06
2017-05-26T09:29:04.682Z,40.19
2017-05-26T09:30:04.382Z,40.09
2017-05-26T09:31:04.760Z,40.39
2017-05-26T09:32:04.719Z,40.5
2017-05-26T09:33:04.772Z,40.19
2017-05-26T09:34:04.731Z,40.39
2017-05-26T09:35:04.792Z,40.09
2017-05-26T09:36:04.440Z,40.09
2017-05-26T09:37:04.813Z,40.39
2017-05-26T09:38:04.768Z,40.48
2017-05-26T09:39:04.468Z,40.29
2017-05-26T09:40:04.789Z,40
2017-05-26T09:41:04.798Z,40.48
2017-05-26T09:42:04.811Z,39.9
2017-05-26T09:43:04.820Z,40.09
2017-05-26T09:44:04.827Z,40
2017-05-26T09:45:04.837Z,39.8
2017-05-26T09:46:04.856Z,40.01
2017-05-26T09:47:04.543Z,39.24
2017-05-26T09:48:04.862Z,39.7
2017-05-26T09:49:04.610Z,39.7
2017-05-26T09:50:04.881Z,39.9
2017-05-26T09:51:04.577Z,39.7
2017-05-26T09:52:04.898Z,39.9
2017-05-26T09:53:04.908Z,40
2017-05-26T09:54:04.918Z,39.8
2017-05-26T09:55:04.927Z,39.7
2017-05-26T09:56:04.938Z,39.41
2017-05-26T09:57:04.946Z,39.24
2017-05-26T09:58:04.956Z,39.22
2017-05-26T09:59:05.013Z,39.9
2017-05-26T10:00:04.977Z,39.7
2017-05-26T10:01:04.982Z,39.51
2017-05-26T10:02:04.993Z,39.51
2017-05-26T10:03:04.692Z,39.41
2017-05-26T10:04:05.009Z,39.43
2017-05-26T10:05:05.024Z,38.75
2017-05-26T10:06:05.041Z,38.93
2017-05-26T10:07:05.039Z,39.32
2017-05-26T10:08:05.055Z,39.32
2017-05-26T10:09:04.804Z,39.41
2017-05-26T10:10:04.758Z,39.12
2017-05-26T10:11:05.079Z,39.32
2017-05-26T10:12:05.136Z,39.32
2017-05-26T10:13:05.095Z,38.93
2017-05-26T10:14:05.103Z,39.32
2017-05-26T10:15:05.114Z,38.93
2017-05-26T10:16:05.126Z,38.54
2017-05-26T10:17:05.132Z,38.83
2017-05-26T10:18:05.142Z,38.54
2017-05-26T10:19:05.155Z,38.34
2017-05-26T10:20:04.849Z,38.34
2017-05-26T10:21:05.167Z,37.76
2017-05-26T10:22:05.187Z,38.06
2017-05-26T10:23:04.876Z,38.15
2017-05-26T10:24:05.251Z,37.86
2017-05-26T10:25:04.906Z,38.15
2017-05-26T10:26:04.903Z,38.44
2017-05-26T10:27:05.221Z,37.66
2017-05-26T10:28:04.923Z,38.15
2017-05-26T10:29:05.297Z,38.06
2017-05-26T10:30:05.252Z,38.54
2017-05-26T10:31:04.952Z,38.25
2017-05-26T10:32:05.320Z,38.34
2017-05-26T10:33:05.279Z,38.34
2017-05-26T10:34:05.031Z,38.25
2017-05-26T10:35:05.303Z,38.34
2017-05-26T10:36:05.007Z,38.06
2017-05-26T10:37:05.004Z,38.15
2017-05-26T10:38:05.325Z,37.57
2017-05-26T10:39:05.434Z,37.96
2017-05-26T10:40:05.345Z,37.28
2017-05-26T10:41:05.354Z,37.76
2017-05-26T10:42:05.051Z,37.86
2017-05-26T10:43:05.371Z,37.66
2017-05-26T10:44:05.380Z,37.76
2017-05-26T10:45:05.441Z,37.76
2017-05-26T10:46:05.086Z,37.76
2017-05-26T10:47:05.409Z,37.76
2017-05-26T10:48:05.432Z,37.86
2017-05-26T10:49:05.475Z,37.86
2017-05-26T10:50:05.452Z,37.86
2017-05-26T10:51:05.445Z,37.86
2017-05-26T10:52:05.506Z,37.86
2017-05-26T10:53:05.464Z,37.86
2017-05-26T10:54:05.489Z,37.66
2017-05-26T10:55:05.483Z,37.57
2017-05-26T10:56:05.795Z,37.37
2017-05-26T10:57:05.239Z,37.57
2017-05-26T10:58:05.514Z,37.47
2017-05-26T10:59:05.519Z,37.47
2017-05-26T11:00:05.234Z,37.57
2017-05-26T11:01:05.536Z,37.47
2017-05-26T11:02:05.597Z,37.37
2017-05-26T11:03:05.657Z,37.28
2017-05-26T11:04:05.570Z,37.37
2017-05-26T11:05:05.575Z,37.18
2017-05-26T11:06:05.328Z,37.28
2017-05-26T11:07:05.594Z,37.28
2017-05-26T11:08:05.602Z,37.47
2017-05-26T11:09:05.351Z,37.47
2017-05-26T11:10:05.678Z,37.47
2017-05-26T11:11:05.634Z,37.57
2017-05-26T11:12:05.387Z,37.47
2017-05-26T11:13:05.701Z,37.08
2017-05-26T11:14:05.658Z,37.37
2017-05-26T11:15:05.670Z,37.66
2017-05-26T11:16:05.366Z,37.47
2017-05-26T11:17:05.689Z,37.18
2017-05-26T11:18:05.695Z,37.66
2017-05-26T11:19:05.706Z,37.37
2017-05-26T11:20:05.714Z,37.47
2017-05-26T11:21:05.725Z,37.57
2017-05-26T11:22:05.734Z,37.08
2017-05-26T11:23:05.743Z,36.99
2017-05-26T11:24:05.750Z,36.99
2017-05-26T11:25:05.776Z,37.08
2017-05-26T11:26:05.769Z,36.89
2017-05-26T11:27:05.831Z,37.28
2017-05-26T11:28:05.792Z,37.57
2017-05-26T11:29:05.800Z,37.47
2017-05-26T11:30:05.498Z,37.96
2017-05-26T11:31:05.823Z,37.96
2017-05-26T11:32:05.829Z,37.86
2017-05-26T11:33:05.836Z,37.86
2017-05-26T11:34:05.846Z,38.15
2017-05-26T11:35:05.859Z,38.34
2017-05-26T11:36:05.868Z,38.54
2017-05-26T11:37:05.923Z,38.64
2017-05-26T11:38:05.620Z,38.64
2017-05-26T11:39:05.895Z,38.73
2017-05-26T11:40:05.901Z,38.44
2017-05-26T11:41:05.913Z,38.25
2017-05-26T11:42:05.921Z,38.34
2017-05-26T11:43:05.930Z,38.73
2017-05-26T11:44:05.939Z,38.54
2017-05-26T11:45:05.688Z,38.73
2017-05-26T11:46:05.701Z,38.64
2017-05-26T11:47:05.968Z,38.71
2017-05-26T11:48:05.979Z,38.83
2017-05-26T11:49:05.984Z,38.44
2017-05-26T11:50:06.002Z,38.25
2017-05-26T11:51:06.008Z,38.44
2017-05-26T11:52:06.013Z,38.73
2017-05-26T11:53:05.715Z,38.64
2017-05-26T11:54:06.036Z,38.93
2017-05-26T11:55:06.091Z,38.93
2017-05-26T11:56:06.053Z,38.73
2017-05-26T11:57:06.062Z,38.73
2017-05-26T11:58:06.076Z,38.73
2017-05-26T11:59:06.080Z,38.83
2017-05-26T12:00:05.778Z,38.83
2017-05-26T12:01:05.844Z,38.83
2017-05-26T12:02:05.807Z,38.73
2017-05-26T12:03:06.117Z,39.03
2017-05-26T12:04:06.178Z,38.73
2017-05-26T12:05:06.144Z,39.03
2017-05-26T12:06:06.194Z,39.41
2017-05-26T12:07:06.156Z,39.39
2017-05-26T12:08:06.165Z,39.51
2017-05-26T12:09:06.226Z,39.51
2017-05-26T12:10:06.233Z,39.32
2017-05-26T12:11:05.881Z,39.51
2017-05-26T12:12:06.202Z,39.41
2017-05-26T12:13:06.261Z,39.51
2017-05-26T12:14:06.223Z,39.22
2017-05-26T12:15:06.230Z,39.22
2017-05-26T12:16:06.241Z,39.32
2017-05-26T12:17:06.350Z,39.32
2017-05-26T12:18:06.258Z,39.41
2017-05-26T12:19:05.959Z,39.22
2017-05-26T12:20:06.287Z,39.22
2017-05-26T12:21:06.341Z,39.22
2017-05-26T12:22:06.034Z,39.22
2017-05-26T12:23:06.309Z,39.61
2017-05-26T12:24:06.053Z,39.41
2017-05-26T12:25:06.374Z,39.29
2017-05-26T12:26:06.382Z,39.29
2017-05-26T12:27:06.035Z,39.41
2017-05-26T12:28:06.047Z,39.8
2017-05-26T12:29:06.362Z,39.9
2017-05-26T12:30:06.058Z,39.8
2017-05-26T12:31:06.431Z,39.29
2017-05-26T12:32:06.389Z,39.2
2017-05-26T12:33:06.400Z,39.9
2017-05-26T12:34:06.408Z,39.78
2017-05-26T12:35:06.457Z,39.78
2017-05-26T12:36:06.116Z,39.7
2017-05-26T12:37:06.433Z,39.69
2017-05-26T12:38:06.495Z,39.7
2017-05-26T12:39:06.148Z,39.8
2017-05-26T12:40:06.463Z,39.8
2017-05-26T12:41:06.481Z,40
2017-05-26T12:42:06.481Z,39.9
2017-05-26T12:43:06.493Z,39.8
2017-05-26T12:44:06.500Z,39.61
2017-05-26T12:45:06.507Z,39.8
2017-05-26T12:46:06.519Z,39.7
2017-05-26T12:47:06.217Z,39.8
2017-05-26T12:48:06.227Z,40
2017-05-26T12:49:06.238Z,40.09
2017-05-26T12:50:06.246Z,40.08
2017-05-26T12:51:06.617Z,39.78
2017-05-26T12:52:06.575Z,39.8
2017-05-26T12:53:06.274Z,39.88
2017-05-26T12:54:06.693Z,39.98
2017-05-26T12:55:06.603Z,39.9
2017-05-26T12:56:06.665Z,39.8